Аэропорт
Душанбе (UTDD)

 UTDD / DYU
ЗЦ Центральная Азия
Душанбе (UTDD)
Душанбе (UTDD)
 38.54330, 68.82500  / 2575 ft

 UTDD 240400Z VRB01MPS 2300 BR FU OVC100 04/M02 Q1022 R09/CLRD// NOSIG RMK QFE698/0930
 UTDD 231500Z 2316/2404 08005MPS 3100 BR FU SCT066 BKN100 TEMPO 2316/2404 VRB02MPS
UTDD charts eff 02.02.17
показать схемы
Название сценария Тип сценария Flight Simulator 9 Flight Simulator X Prepar3D v2 Prepar3D v3 Prepar3D v4 xPlane
Recommended scenery for FS9 бесплатный
Recommended scenery for FSX бесплатный
Recommended scenery for xPlane бесплатный


2019 © VATRUS division (Privacy Policy)